createdAt,value
2019-04-05T00:01:50.930Z,11.23
2019-04-05T00:04:18.672Z,12.17
2019-04-05T00:06:45.922Z,13.17
2019-04-05T00:09:13.484Z,21.60
2019-04-05T00:11:41.475Z,14.37
2019-04-05T00:14:09.720Z,15.13
2019-04-05T00:16:40.354Z,14.97
2019-04-05T00:19:08.379Z,17.53
2019-04-05T00:21:37.089Z,15.40
2019-04-05T00:24:05.087Z,16.33
2019-04-05T00:26:33.784Z,18.80
2019-04-05T00:29:01.775Z,16.00
2019-04-05T00:31:29.821Z,10.80
2019-04-05T00:33:57.528Z,21.10
2019-04-05T00:36:25.126Z,18.93
2019-04-05T00:38:54.532Z,15.87
2019-04-05T00:41:22.059Z,10.47
2019-04-05T00:43:50.476Z,16.93
2019-04-05T00:46:18.961Z,12.37
2019-04-05T00:48:47.239Z,15.43
2019-04-05T00:51:15.324Z,13.83
2019-04-05T00:53:43.601Z,19.17
2019-04-05T00:56:12.238Z,14.40
2019-04-05T00:58:42.083Z,12.80
2019-04-05T01:01:10.558Z,12.53
2019-04-05T01:03:57.515Z,17.67
2019-04-05T01:06:25.910Z,11.60
2019-04-05T01:08:54.585Z,11.50
2019-04-05T01:11:22.758Z,14.60
2019-04-05T01:13:51.764Z,13.73
2019-04-05T01:16:20.211Z,10.23
2019-04-05T01:18:48.694Z,8.17
2019-04-05T01:21:19.609Z,19.03
2019-04-05T01:23:54.139Z,15.30
2019-04-05T01:26:23.283Z,14.07
2019-04-05T01:28:51.319Z,13.30
2019-04-05T01:31:19.020Z,23.40
2019-04-05T01:33:47.782Z,11.00
2019-04-05T01:36:16.367Z,12.80
2019-04-05T01:38:44.585Z,10.13
2019-04-05T01:41:12.599Z,14.43
2019-04-05T01:43:39.931Z,18.07
2019-04-05T01:46:08.819Z,15.57
2019-04-05T01:48:38.986Z,11.00
2019-04-05T01:51:07.004Z,8.97
2019-04-05T01:53:34.927Z,11.10
2019-04-05T01:56:03.717Z,14.93
2019-04-05T01:58:31.786Z,21.43
2019-04-05T02:01:00.868Z,15.03
2019-04-05T02:03:28.180Z,13.23
2019-04-05T02:05:58.660Z,14.43
2019-04-05T02:08:26.746Z,12.60
2019-04-05T02:10:54.972Z,9.73
2019-04-05T02:13:23.263Z,10.37
2019-04-05T02:15:52.003Z,19.27
2019-04-05T02:18:20.345Z,12.70
2019-04-05T02:20:48.031Z,13.23
2019-04-05T02:23:16.774Z,13.40
2019-04-05T02:25:44.372Z,17.57
2019-04-05T02:28:12.824Z,15.63
2019-04-05T02:30:40.824Z,13.43
2019-04-05T02:33:09.197Z,17.37
2019-04-05T02:35:39.050Z,15.23
2019-04-05T02:38:05.975Z,14.63
2019-04-05T02:40:37.091Z,14.47
2019-04-05T02:43:06.111Z,16.63
2019-04-05T02:45:37.158Z,17.77
2019-04-05T02:48:09.035Z,17.80
2019-04-05T02:50:38.792Z,19.90
2019-04-05T02:53:08.962Z,15.50
2019-04-05T02:55:39.026Z,19.53
2019-04-05T02:58:10.970Z,19.90
2019-04-05T03:00:39.308Z,16.93
2019-04-05T03:03:07.112Z,15.50
2019-04-05T03:05:37.341Z,18.87
2019-04-05T03:08:05.962Z,20.10
2019-04-05T03:11:07.494Z,16.40
2019-04-05T03:13:49.439Z,15.33
2019-04-05T03:16:19.409Z,17.20
2019-04-05T03:18:53.845Z,13.83
2019-04-05T03:21:22.927Z,19.63
2019-04-05T03:23:53.684Z,16.20
2019-04-05T03:26:25.232Z,21.27
2019-04-05T03:28:55.346Z,15.30
2019-04-05T03:31:25.788Z,15.17
2019-04-05T03:33:57.345Z,19.67
2019-04-05T03:36:26.322Z,14.07
2019-04-05T03:38:54.805Z,17.20
2019-04-05T03:41:23.080Z,15.33
2019-04-05T03:43:51.856Z,12.30
2019-04-05T03:46:20.545Z,14.53
2019-04-05T03:48:50.202Z,11.53
2019-04-05T03:51:18.648Z,16.87
2019-04-05T03:53:47.295Z,15.43
2019-04-05T03:56:16.549Z,13.10
2019-04-05T03:58:45.785Z,15.67
2019-04-05T04:01:16.459Z,22.13
2019-04-05T04:03:44.632Z,19.67
2019-04-05T04:06:13.051Z,17.17
2019-04-05T04:08:41.395Z,13.77
2019-04-05T04:11:09.848Z,17.53
2019-04-05T04:13:39.145Z,18.20
2019-04-05T04:16:07.141Z,15.80
2019-04-05T04:18:35.632Z,16.80
2019-04-05T04:21:24.524Z,18.33
2019-04-05T04:23:56.765Z,21.27
2019-04-05T04:26:24.323Z,16.80
2019-04-05T04:28:52.906Z,12.47
2019-04-05T04:31:20.954Z,12.23
2019-04-05T04:33:49.850Z,20.50
2019-04-05T04:36:18.460Z,17.00
2019-04-05T04:38:47.137Z,15.80
2019-04-05T04:41:15.778Z,16.60
2019-04-05T04:43:43.795Z,15.30
2019-04-05T04:46:12.228Z,15.37
2019-04-05T04:48:39.623Z,20.67
2019-04-05T04:51:07.971Z,17.70
2019-04-05T04:53:37.115Z,11.40
2019-04-05T04:56:05.817Z,11.77
2019-04-05T04:58:33.226Z,17.70
2019-04-05T05:01:01.276Z,15.40
2019-04-05T05:03:30.227Z,14.80
2019-04-05T05:05:58.712Z,16.10
2019-04-05T05:08:27.112Z,20.60
2019-04-05T05:10:55.925Z,20.97
2019-04-05T05:13:24.143Z,15.63
2019-04-05T05:15:52.361Z,19.90
2019-04-05T05:18:20.491Z,16.47
2019-04-05T05:20:48.876Z,17.30
2019-04-05T05:23:17.575Z,17.00
2019-04-05T05:25:46.923Z,19.33
2019-04-05T05:28:15.231Z,24.10
2019-04-05T05:30:43.615Z,16.03
2019-04-05T05:33:11.615Z,22.77
2019-04-05T05:35:39.289Z,17.03
2019-04-05T05:38:07.722Z,27.37
2019-04-05T05:40:35.766Z,19.77
2019-04-05T05:43:03.111Z,21.53
2019-04-05T05:45:30.836Z,14.53
2019-04-05T05:47:58.906Z,18.00
2019-04-05T05:50:28.078Z,14.87
2019-04-05T05:52:58.012Z,20.37
2019-04-05T05:55:25.715Z,18.40
2019-04-05T05:57:54.867Z,18.80
2019-04-05T06:00:23.358Z,16.03
2019-04-05T06:02:51.428Z,30.90
2019-04-05T06:05:18.993Z,21.13
2019-04-05T06:07:47.018Z,21.13
2019-04-05T06:10:15.444Z,23.70
2019-04-05T06:12:45.986Z,24.00
2019-04-05T06:15:14.356Z,17.27
2019-04-05T06:17:42.838Z,11.83
2019-04-05T06:20:14.018Z,20.40
2019-04-05T06:22:42.651Z,21.23
2019-04-05T06:25:10.542Z,17.37
2019-04-05T06:27:38.183Z,16.50
2019-04-05T06:30:05.911Z,12.17
2019-04-05T06:32:34.252Z,10.60
2019-04-05T06:35:01.913Z,21.03
2019-04-05T06:37:30.599Z,16.43
2019-04-05T06:39:58.600Z,18.33
2019-04-05T06:42:26.847Z,13.33
2019-04-05T06:44:55.633Z,18.00
2019-04-05T06:47:23.480Z,24.13
2019-04-05T06:49:51.143Z,12.70
2019-04-05T06:52:20.433Z,10.97
2019-04-05T06:54:49.149Z,20.37
2019-04-05T06:57:16.565Z,14.83
2019-04-05T06:59:44.781Z,13.83
2019-04-05T07:02:12.751Z,18.63
2019-04-05T07:04:40.284Z,15.50
2019-04-05T07:07:08.582Z,16.00
2019-04-05T07:09:36.398Z,16.00
2019-04-05T07:12:04.433Z,13.27
2019-04-05T07:14:37.575Z,11.20
2019-04-05T07:17:05.998Z,8.97
2019-04-05T07:19:34.778Z,13.07
2019-04-05T07:22:02.763Z,7.57
2019-04-05T07:24:30.835Z,9.30
2019-04-05T07:26:59.266Z,9.60
2019-04-05T07:29:37.106Z,13.47
2019-04-05T07:32:22.603Z,8.70
2019-04-05T07:34:50.221Z,11.60
2019-04-05T07:37:18.227Z,10.70
2019-04-05T07:39:48.627Z,9.17
2019-04-05T07:42:16.704Z,8.30
2019-04-05T07:44:44.271Z,6.93
2019-04-05T07:47:12.244Z,8.40
2019-04-05T07:49:40.232Z,8.43
2019-04-05T07:52:12.784Z,15.13
2019-04-05T07:54:40.036Z,5.37
2019-04-05T07:57:09.711Z,10.00
2019-04-05T07:59:37.413Z,5.07
2019-04-05T08:02:05.509Z,11.10
2019-04-05T08:04:33.240Z,11.93
2019-04-05T08:07:02.584Z,8.57
2019-04-05T08:09:31.333Z,9.10
2019-04-05T08:12:00.476Z,7.40
2019-04-05T08:14:28.621Z,8.47
2019-04-05T08:16:56.907Z,7.90
2019-04-05T08:19:24.873Z,11.23
2019-04-05T08:21:52.941Z,12.63
2019-04-05T08:24:21.070Z,8.97
2019-04-05T08:26:49.369Z,9.47
2019-04-05T08:29:17.580Z,7.70
2019-04-05T08:31:45.247Z,7.73
2019-04-05T08:34:13.358Z,9.80
2019-04-05T08:36:41.699Z,9.00
2019-04-05T08:39:09.566Z,10.33
2019-04-05T08:41:37.945Z,11.03
2019-04-05T08:44:06.304Z,10.07
2019-04-05T08:46:34.699Z,9.83
2019-04-05T08:49:10.472Z,8.33
2019-04-05T08:51:33.658Z,9.57
2019-04-05T08:54:01.988Z,10.73
2019-04-05T08:56:29.654Z,7.03
2019-04-05T08:58:58.136Z,10.00
2019-04-05T09:01:26.207Z,10.70
2019-04-05T09:03:54.981Z,13.77
2019-04-05T09:06:23.382Z,8.63
2019-04-05T09:08:51.434Z,11.30
2019-04-05T09:11:20.876Z,8.83
2019-04-05T09:13:51.127Z,17.80
2019-04-05T09:16:19.973Z,12.70
2019-04-05T09:18:49.519Z,16.50
2019-04-05T09:21:18.987Z,11.60
2019-04-05T09:23:47.215Z,13.43
2019-04-05T09:26:15.316Z,8.90
2019-04-05T09:28:43.715Z,10.60
2019-04-05T09:31:11.681Z,13.57
2019-04-05T09:33:42.813Z,13.33
2019-04-05T09:36:10.875Z,12.17
2019-04-05T09:38:38.769Z,11.40
2019-04-05T09:41:06.424Z,8.23
2019-04-05T09:43:34.629Z,9.83
2019-04-05T09:46:02.303Z,7.70
2019-04-05T09:48:30.625Z,12.93
2019-04-05T09:50:58.329Z,14.77
2019-04-05T09:53:27.294Z,14.00
2019-04-05T09:55:56.281Z,11.57
2019-04-05T09:58:23.931Z,16.87
2019-04-05T10:00:52.317Z,11.23
2019-04-05T10:03:20.052Z,13.70
2019-04-05T10:05:48.357Z,10.10
2019-04-05T10:08:16.645Z,11.73
2019-04-05T10:10:46.140Z,10.33
2019-04-05T10:13:14.112Z,9.27
2019-04-05T10:15:41.406Z,13.87
2019-04-05T10:18:09.115Z,11.37
2019-04-05T10:20:38.959Z,15.30
2019-04-05T10:23:07.551Z,16.80
2019-04-05T10:25:36.040Z,15.73
2019-04-05T10:28:04.342Z,15.97
2019-04-05T10:30:32.769Z,15.50
2019-04-05T10:33:00.135Z,13.90
2019-04-05T10:35:27.778Z,13.67
2019-04-05T10:37:58.278Z,10.73
2019-04-05T10:40:26.743Z,18.93
2019-04-05T10:43:07.087Z,20.47
2019-04-05T10:45:38.264Z,12.53
2019-04-05T10:48:06.363Z,12.17
2019-04-05T10:50:34.041Z,15.80
2019-04-05T10:53:02.532Z,10.37
2019-04-05T10:55:30.268Z,13.80
2019-04-05T10:57:58.657Z,13.53
2019-04-05T11:00:26.719Z,14.23
2019-04-05T11:02:55.442Z,18.20
2019-04-05T11:05:23.820Z,13.00
2019-04-05T11:07:52.602Z,14.07
2019-04-05T11:10:20.663Z,13.40
2019-04-05T11:12:50.113Z,21.27
2019-04-05T11:15:18.985Z,11.03
2019-04-05T11:17:47.031Z,13.67
2019-04-05T11:20:23.062Z,14.47
2019-04-05T11:22:46.930Z,19.80
2019-04-05T11:25:14.622Z,11.90
2019-04-05T11:27:43.314Z,10.33
2019-04-05T11:30:11.582Z,18.50
2019-04-05T11:32:39.278Z,15.43
2019-04-05T11:35:08.189Z,15.53
2019-04-05T11:37:41.351Z,11.03
2019-04-05T11:40:10.126Z,11.07
2019-04-05T11:42:37.998Z,16.70
2019-04-05T11:45:07.021Z,18.50
2019-04-05T11:47:35.895Z,12.70
2019-04-05T11:50:06.242Z,22.57
2019-04-05T11:52:34.262Z,12.60
2019-04-05T11:55:04.549Z,24.60
2019-04-05T11:57:32.518Z,19.47
2019-04-05T12:00:03.065Z,17.83
2019-04-05T12:02:50.302Z,12.93
2019-04-05T12:05:18.114Z,12.90
2019-04-05T12:07:46.483Z,23.03
2019-04-05T12:10:18.754Z,11.40
2019-04-05T12:12:45.238Z,26.50
2019-04-05T12:15:13.080Z,16.90
2019-04-05T12:17:41.048Z,16.30
2019-04-05T12:20:09.420Z,10.83
2019-04-05T12:22:38.814Z,21.73
2019-04-05T12:25:07.724Z,18.13
2019-04-05T12:27:38.939Z,14.27
2019-04-05T12:30:08.959Z,11.63
2019-04-05T12:32:41.374Z,11.30
2019-04-05T12:35:08.417Z,20.00
2019-04-05T12:37:49.174Z,13.80
2019-04-05T12:40:10.132Z,26.47
2019-04-05T12:42:45.014Z,24.13
2019-04-05T12:45:19.643Z,16.90
2019-04-05T12:47:53.028Z,14.43
2019-04-05T12:50:21.505Z,14.43
2019-04-05T12:52:49.692Z,29.47
2019-04-05T12:55:17.996Z,15.07
2019-04-05T12:57:48.339Z,22.27
2019-04-05T13:00:16.217Z,19.80
2019-04-05T13:02:44.479Z,18.13
2019-04-05T13:05:12.437Z,23.93
2019-04-05T13:07:40.667Z,23.07
2019-04-05T13:10:11.293Z,20.10
2019-04-05T13:12:41.507Z,15.27
2019-04-05T13:15:16.581Z,34.27
2019-04-05T13:17:40.195Z,15.27
2019-04-05T13:20:08.491Z,23.20
2019-04-05T13:22:36.943Z,25.67
2019-04-05T13:25:06.215Z,37.30
2019-04-05T13:27:35.604Z,18.53
2019-04-05T13:30:03.264Z,23.97
2019-04-05T13:32:38.478Z,18.10
2019-04-05T13:35:09.116Z,14.57
2019-04-05T13:37:38.679Z,17.73
2019-04-05T13:40:08.595Z,25.30
2019-04-05T13:42:39.507Z,18.13
2019-04-05T13:45:09.248Z,18.80
2019-04-05T13:47:40.577Z,17.77
2019-04-05T13:50:12.338Z,27.53
2019-04-05T13:52:42.403Z,15.60
2019-04-05T13:55:11.559Z,17.77
2019-04-05T13:57:42.144Z,16.50
2019-04-05T14:00:12.648Z,27.23
2019-04-05T14:02:44.353Z,17.93
2019-04-05T14:05:17.026Z,15.60
2019-04-05T14:07:45.083Z,39.13
2019-04-05T14:10:13.464Z,22.17
2019-04-05T14:12:42.114Z,20.93
2019-04-05T14:15:11.285Z,15.63
2019-04-05T14:17:44.783Z,28.73
2019-04-05T14:20:12.870Z,18.53
2019-04-05T14:22:42.227Z,15.50
2019-04-05T14:25:11.810Z,17.57
2019-04-05T14:27:43.669Z,20.90
2019-04-05T14:30:13.605Z,17.23
2019-04-05T14:32:42.986Z,26.73
2019-04-05T14:35:13.882Z,26.50
2019-04-05T14:37:44.573Z,23.20
2019-04-05T14:40:14.874Z,18.33
2019-04-05T14:42:45.982Z,28.77
2019-04-05T14:45:14.884Z,22.60
2019-04-05T14:47:42.795Z,24.37
2019-04-05T14:50:20.081Z,19.63
2019-04-05T14:52:49.769Z,29.67
2019-04-05T14:55:18.898Z,20.87
2019-04-05T14:57:55.891Z,22.10
2019-04-05T15:00:26.557Z,16.63
2019-04-05T15:02:55.843Z,23.53
2019-04-05T15:05:42.733Z,23.20
2019-04-05T15:08:13.838Z,19.80
2019-04-05T15:10:43.786Z,23.70
2019-04-05T15:13:13.704Z,19.20
2019-04-05T15:15:44.945Z,20.27
2019-04-05T15:18:15.140Z,19.67
2019-04-05T15:20:44.564Z,25.73
2019-04-05T15:23:15.487Z,15.10
2019-04-05T15:25:44.234Z,14.10
2019-04-05T15:28:13.496Z,21.80
2019-04-05T15:30:49.348Z,20.27
2019-04-05T15:33:16.758Z,22.60
2019-04-05T15:35:46.819Z,30.73
2019-04-05T15:38:16.455Z,18.87
2019-04-05T15:40:44.714Z,19.80
2019-04-05T15:43:12.918Z,24.30
2019-04-05T15:45:42.707Z,31.93
2019-04-05T15:48:15.661Z,19.10
2019-04-05T15:50:44.596Z,19.67
2019-04-05T15:53:12.661Z,20.90
2019-04-05T15:55:41.871Z,22.73
2019-04-05T15:58:09.504Z,17.90
2019-04-05T16:00:39.853Z,17.50
2019-04-05T16:03:08.441Z,19.37
2019-04-05T16:05:36.197Z,23.13
2019-04-05T16:08:03.874Z,26.90
2019-04-05T16:10:31.854Z,14.30
2019-04-05T16:12:59.796Z,30.43
2019-04-05T16:15:27.781Z,33.57
2019-04-05T16:17:56.648Z,16.70
2019-04-05T16:20:24.641Z,25.40
2019-04-05T16:22:53.262Z,30.77
2019-04-05T16:25:23.670Z,23.20
2019-04-05T16:27:51.347Z,25.87
2019-04-05T16:30:19.065Z,32.27
2019-04-05T16:32:47.052Z,28.10
2019-04-05T16:35:15.169Z,25.23
2019-04-05T16:37:42.867Z,22.63
2019-04-05T16:40:12.827Z,27.60
2019-04-05T16:42:41.817Z,26.47
2019-04-05T16:45:10.080Z,23.80
2019-04-05T16:47:44.291Z,25.50
2019-04-05T16:50:13.879Z,22.37
2019-04-05T16:52:44.972Z,29.07
2019-04-05T16:55:13.473Z,22.70
2019-04-05T16:57:41.096Z,23.10
2019-04-05T17:00:11.101Z,23.83
2019-04-05T17:02:38.757Z,25.67
2019-04-05T17:05:08.240Z,43.50
2019-04-05T17:07:35.954Z,28.07
2019-04-05T17:10:04.816Z,37.97
2019-04-05T17:12:32.915Z,21.73
2019-04-05T17:15:01.780Z,26.87
2019-04-05T17:17:29.762Z,22.07
2019-04-05T17:19:57.066Z,22.67
2019-04-05T17:22:25.170Z,28.53
2019-04-05T17:24:52.740Z,42.77
2019-04-05T17:27:20.928Z,21.90
2019-04-05T17:29:49.664Z,29.43
2019-04-05T17:32:18.135Z,32.73
2019-04-05T17:34:46.150Z,32.97
2019-04-05T17:37:14.238Z,27.87
2019-04-05T17:39:42.211Z,32.03
2019-04-05T17:42:09.742Z,22.93
2019-04-05T17:44:37.832Z,31.63
2019-04-05T17:47:06.376Z,27.50
2019-04-05T17:49:34.908Z,34.03
2019-04-05T17:52:02.721Z,21.07
2019-04-05T17:54:31.267Z,23.53
2019-04-05T17:56:59.877Z,21.40
2019-04-05T17:59:27.802Z,26.80
2019-04-05T18:01:56.487Z,24.97
2019-04-05T18:04:23.817Z,25.90
2019-04-05T18:06:52.059Z,21.97
2019-04-05T18:09:20.044Z,35.73
2019-04-05T18:11:48.585Z,25.07
2019-04-05T18:14:16.982Z,22.97
2019-04-05T18:16:44.947Z,26.80
2019-04-05T18:19:16.394Z,34.73
2019-04-05T18:21:47.721Z,27.40
2019-04-05T18:24:15.344Z,26.73
2019-04-05T18:26:43.916Z,22.03
2019-04-05T18:29:12.507Z,26.97
2019-04-05T18:31:41.143Z,25.83
2019-04-05T18:34:08.804Z,25.93
2019-04-05T18:36:36.939Z,25.43
2019-04-05T18:39:06.033Z,29.60
2019-04-05T18:41:34.561Z,21.77
2019-04-05T18:44:01.924Z,24.80
2019-04-05T18:46:29.977Z,32.50
2019-04-05T18:48:58.459Z,20.63
2019-04-05T18:51:26.533Z,23.27
2019-04-05T18:53:57.107Z,38.03
2019-04-05T18:56:25.116Z,26.53
2019-04-05T18:58:54.200Z,28.27
2019-04-05T19:01:22.183Z,29.47
2019-04-05T19:03:50.523Z,29.60
2019-04-05T19:06:18.815Z,30.40
2019-04-05T19:08:54.387Z,26.90
2019-04-05T19:11:22.473Z,33.80
2019-04-05T19:14:01.117Z,27.80
2019-04-05T19:16:25.220Z,23.33
2019-04-05T19:18:54.278Z,34.23
2019-04-05T19:21:22.289Z,31.40
2019-04-05T19:23:51.245Z,26.10
2019-04-05T19:26:24.530Z,27.00
2019-04-05T19:28:53.008Z,23.37
2019-04-05T19:49:10.467Z,41.03
2019-04-05T19:51:39.821Z,23.10
2019-04-05T19:54:13.123Z,29.90
2019-04-05T19:56:41.616Z,24.07
2019-04-05T19:59:13.590Z,31.80
2019-04-05T20:01:51.798Z,32.60
2019-04-05T20:04:20.723Z,27.23
2019-04-05T20:06:58.088Z,19.33
2019-04-05T20:09:20.830Z,30.17
2019-04-05T20:11:49.408Z,30.63
2019-04-05T20:14:18.851Z,24.40
2019-04-05T20:16:49.861Z,30.20
2019-04-05T20:19:19.783Z,25.40
2019-04-05T20:21:56.764Z,22.73
2019-04-05T20:24:25.392Z,42.40
2019-04-05T20:26:53.126Z,27.87
2019-04-05T20:29:21.861Z,29.83
2019-04-05T20:31:51.501Z,22.63
2019-04-05T20:34:39.113Z,25.40
2019-04-05T20:37:08.758Z,34.20
2019-04-05T20:39:47.197Z,27.60
2019-04-05T20:42:24.900Z,35.00
2019-04-05T20:44:52.937Z,24.73
2019-04-05T20:47:31.452Z,26.73
2019-04-05T20:50:00.857Z,33.53
2019-04-05T20:52:30.018Z,24.83
2019-04-05T20:54:57.720Z,35.30
2019-04-05T20:57:26.717Z,30.03
2019-04-05T20:59:55.812Z,30.57
2019-04-05T21:02:23.949Z,32.07
2019-04-05T21:04:52.656Z,33.33
2019-04-05T21:07:22.208Z,30.77
2019-04-05T21:09:50.929Z,32.20
2019-04-05T21:12:19.841Z,34.13
2019-04-05T21:14:48.771Z,33.43
2019-04-05T21:17:17.270Z,33.50
2019-04-05T21:19:45.302Z,18.83
2019-04-05T21:22:13.679Z,27.37
2019-04-05T21:24:41.842Z,26.83
2019-04-05T21:27:12.538Z,25.43
2019-04-05T21:29:40.628Z,33.80
2019-04-05T21:32:09.850Z,26.53
2019-04-05T21:34:38.079Z,30.23
2019-04-05T21:37:06.729Z,23.13
2019-04-05T21:39:35.408Z,29.20
2019-04-05T21:42:22.259Z,39.20
2019-04-05T21:44:55.460Z,40.47
2019-04-05T21:47:23.741Z,34.07
2019-04-05T21:49:52.450Z,29.33
2019-04-05T21:52:22.293Z,27.67
2019-04-05T21:54:51.009Z,31.13
2019-04-05T21:57:19.688Z,33.63
2019-04-05T21:59:48.153Z,31.33
2019-04-05T22:02:18.239Z,25.30
2019-04-05T22:04:46.308Z,29.07
2019-04-05T22:07:15.173Z,34.30
2019-04-05T22:09:43.720Z,31.00
2019-04-05T22:12:11.891Z,35.47
2019-04-05T22:14:40.105Z,32.77
2019-04-05T22:17:09.537Z,30.73
2019-04-05T22:19:39.722Z,31.23
2019-04-05T22:22:10.242Z,40.87
2019-04-05T22:24:37.728Z,47.73
2019-04-05T22:27:05.174Z,38.97
2019-04-05T22:29:33.058Z,31.87
2019-04-05T22:32:00.749Z,27.40
2019-04-05T22:34:28.723Z,37.57
2019-04-05T22:36:57.013Z,26.27
2019-04-05T22:39:24.976Z,48.80
2019-04-05T22:41:53.700Z,40.60
2019-04-05T22:44:22.449Z,42.57
2019-04-05T22:46:51.394Z,40.27
2019-04-05T22:49:20.347Z,43.87
2019-04-05T22:51:48.425Z,41.30
2019-04-05T22:54:16.931Z,41.30
2019-04-05T22:56:45.702Z,32.70
2019-04-05T22:59:13.444Z,44.77
2019-04-05T23:01:41.364Z,43.63
2019-04-05T23:04:09.527Z,36.50
2019-04-05T23:06:40.412Z,35.93
2019-04-05T23:09:08.692Z,40.20
2019-04-05T23:11:38.507Z,33.97
2019-04-05T23:14:06.601Z,26.57
2019-04-05T23:16:38.086Z,33.47
2019-04-05T23:19:06.371Z,31.97
2019-04-05T23:21:34.802Z,29.33
2019-04-05T23:24:03.198Z,34.97
2019-04-05T23:26:30.935Z,29.13
2019-04-05T23:28:59.436Z,24.07
2019-04-05T23:31:27.403Z,29.63
2019-04-05T23:33:56.108Z,28.93
2019-04-05T23:36:24.510Z,34.40
2019-04-05T23:38:53.967Z,31.93
2019-04-05T23:41:22.317Z,39.33
2019-04-05T23:43:50.816Z,31.13
2019-04-05T23:46:19.366Z,28.83
2019-04-05T23:48:47.198Z,35.13
2019-04-05T23:51:17.607Z,32.90
2019-04-05T23:53:45.298Z,36.83
2019-04-05T23:56:14.240Z,25.90
2019-04-05T23:58:42.549Z,29.93
